Seleccione un Aeropuerto
Regional La Paz
EstaciónAerodromoSit. GeograficaDescripción
SLLPInternaciónal El Alto16-08S-68-10W SLLP 151200Z VRB02KT 9999 NSC 01/M05 Q1039 A3069 628.8 HR65 HZ S/SW/W CI NOSIG=
SLRYReyes14-18S-67-21W SLRY 151200Z 00000KT 9999 NSC 17/16 Q1016 A3002 HR92 RWY NML=
SLRQRurrenabaque14-25S-67-29W SLRQ 151200Z 00000KT 9999 NSC 19/19 Q1017 A3004 993.1 HR97=
SLAPApolo14-44S-68-24W SLAP 151200Z 00000KT 9999 FEW008 SCT017 13/12 Q1023 A3023 863.5 HR94 AC/CC=
SLSBSan Borja14-51S-66-44W SLSB 151200Z 10003KT 9999 NSC 19/18 Q1017 A3005 HR92 RWY NML=
SLCNCharaña17-35S-69-25W
SLOROruro17-57S-67-04W SLOR 151200Z 01003KT 7000 NSC M05/M13 Q1037 A3064 657.7 HR55 VIS RED FU N/NE/E/S CI=
SLUYUyuni20-27S-62-52W SLUY 151200Z 00000KT 9999 NSC M09/M21 Q1037 A3063 660.5 HR37 HZ SE/S CI=
SLCCCopacabana - Tito Yupanqui16-11S-69-05W
Regional Cochabamba
EstaciónAerodromoSit. GeograficaDescripción
SLVMVillamontes21-15S-63-24W SLVM 151200Z 00000KT 9999 SCT025 OVC070 18/15 Q1024 A3025 HR84=
SLHIChimore16-58S-65-09W SLHI 151200Z NIL=
SLCBCochabamba17-25S-66-10W SLCB 151200Z 00000KT 9999 NSC 07/02 Q1029 A3041 755.0 HR67 FU NOSIG=
SLALAlcantari19-14S-65-09W SLAL 151200Z 02006KT 9999 FEW007 04/01 Q1034 A3054 707.0 HR86=
SLPOPotosí19-32S-65-43W SLPO 151200Z 00000KT 9999 NSC M01/M07 Q1039 A3070 639.3 HR65 CI =
SLAGMonteagudo19-49S-63-58W SLAG 151200Z NIL=
SLTJTarija21-33S-64-42W SLTJ 151200Z 00000KT 9999 SCT025 BKN070 11/08 Q1028 A3036 821.8 HR81=
SLYAYacuiba21-57S-63-39W SLYA 151200Z 21006KT 9999 BKN020 OVC070 18/14 Q1024 A3026 948.6 HR78=
SLBJBermejo22-46S-64-18W SLBJ 151200Z NIL=
Regional Santa Cruz
EstaciónAerodromoSit. GeograficaDescripción
SLVGValle Grande18-28S-64-05W SLVG 151200Z 18003KT 9999 OVC030 11/06 Q1030 A3041 HR67 RWY NML =
SLASAscención de Guarayos15-55S-63-09W SLAS 151200Z 00000KT 9999 BKN070 21/19 Q1020 A3012 HR92 RWY NML =
SLCPConcepción16-08S-62-01W SLCP 151200Z 00000KT 9999 FEW070 19/19 Q1022 A3018 HR95 RWY NML =
SLJVSan Javier16-16S-62-28W SLJV 151200Z 00000KT 9999 SCT023 20/18 Q1018 A3006 HR89 RWY NML =
SLTISan Matías16-20S-58-24W SLTI 151200Z 00000KT 9999 NSC 22/21 Q1022 A3018 HR93 RWY NML=
SLSISan Ignacio de Velasco16-23S-60-57W SLSI 151200Z 00000KT 9999 SCT017 20/19 Q1018 A3006 HR91 RWY CLSD=
SLVRInternaciónal Viru Viru17-38S-63-08W SLVR 151200Z 16005KT 9999 SCT025 BKN070 20/15 Q1020 A3013 HR71 NOSIG=
SLETEl Trompillo17-48S-63-10W SLET 151200Z 15005KT 9999 BKN070 20/15 Q1019 A30.11 HR71 NOSIG=
SLJESan José de Chiquitos17-49S-60-44W SLJE 151200Z 00000KT 9999 BKN070 21/19 Q1021 A3015 HR87 RWY NML =
SLRBRoboré18-19S-59-45W SLRB 151200Z 00000KT 9999 SCT070 20/19 Q1021 A3015 HR95 RWY NML =
SLPSPuerto Suárez18-58S-57-49W SLPS 151200Z 06004KT 9999 BKN070 19/16 Q1017 A3004 HR84=
SLCACamiri20-00S-63-31W SLCA 151200Z 00000KT 9999 BKN070 12/11 Q1026 A3030 HR90 RWY NML =
Regional Beni
EstaciónAerodromoSit. GeograficaDescripción
SLTRTrinidad14-49S-64-54W SLTR 151200Z 00000KT 9999 FEW020 21/20 Q1018 A3007 999.6 HR94 NOSIG=
SLCOCobija11-02S-68-47W SLCO 151200Z 00000KT 8000 NSC 21/20 Q1016 A3002 989.1 HR94 BR CI=
SLGMGuayaramerín10-53S-65-23W SLGM 151200Z 00000KT 9999 NSC 22/19 Q1016 A3001 HR83=
SLRIRiberalta11-00S-66-04W SLRI 151200Z 00000KT 9999 NSC 21/20 Q1017 A3005 HR93=
SLJOSan Joaquin13-03S-64-39W SLJO 151200Z 00000KT 9999 FEW080 21/20 Q1015 A2998 HR91 RWY NML=
SLRASan Ramón13-15S-64-36W SLRA 151200Z 12003KT 9999 NSC 21/20 Q1016 A3002 HR96 AC RWY NML=
SLMGSan Magdalena13-15S-64-36W SLMG 151200Z 00000KT 9999 BKN080 21/20 Q1015 A2998 HR96 RWY NML=
SLBUBaures13-39S-63-42W SLBU 151200Z 00000KT 9999 BKN080 21/21 Q1017 A3003 HR97 RWY NML=
SLSASanta Ana de Yacuma13-45S-65-26W SLSA 151200Z 00000KT 9999 NSC 21/20 Q1016 A3001 HR91=
SLSRSanta Rosa14-04S-66-47W SLSR 151200Z 00000KT 9999 NSC 20/18 Q1020 A3014 HR93 RWY NML=
SLSMSan Ignacio de Moxos14-57S-65-38W SLSM 151200Z 00000KT 9999 FEW080 20/19 Q1018 A3006 HR95 RWY NML=